createdAt,value
2022-12-06T00:00:31.721Z,1005.14
2022-12-06T00:01:31.689Z,1005.17
2022-12-06T00:02:31.757Z,1005.18
2022-12-06T00:03:31.729Z,1005.21
2022-12-06T00:04:31.634Z,1005.17
2022-12-06T00:05:31.603Z,1005.21
2022-12-06T00:06:31.596Z,1005.19
2022-12-06T00:07:31.629Z,1005.20
2022-12-06T00:08:31.557Z,1005.23
2022-12-06T00:09:31.521Z,1005.25
2022-12-06T00:10:31.498Z,1005.23
2022-12-06T00:11:31.478Z,1005.23
2022-12-06T00:12:31.488Z,1005.20
2022-12-06T00:13:31.438Z,1005.20
2022-12-06T00:14:31.414Z,1005.22
2022-12-06T00:15:31.395Z,1005.19
2022-12-06T00:16:31.425Z,1005.24
2022-12-06T00:17:31.395Z,1005.22
2022-12-06T00:18:31.330Z,1005.20
2022-12-06T00:19:31.303Z,1005.18
2022-12-06T00:20:31.291Z,1005.19
2022-12-06T00:21:31.264Z,1005.19
2022-12-06T00:22:31.289Z,1005.19
2022-12-06T00:23:31.808Z,1005.15
2022-12-06T00:24:31.201Z,1005.17
2022-12-06T00:25:31.208Z,1005.16
2022-12-06T00:26:31.158Z,1005.11
2022-12-06T00:27:31.134Z,1005.11
2022-12-06T00:28:31.141Z,1005.12
2022-12-06T00:29:31.095Z,1005.13
2022-12-06T00:30:31.072Z,1005.07
2022-12-06T00:31:31.095Z,1005.08
2022-12-06T00:32:31.069Z,1005.06
2022-12-06T00:33:31.040Z,1005.07
2022-12-06T00:34:31.019Z,1005.09
2022-12-06T00:35:30.960Z,1005.10
2022-12-06T00:36:30.941Z,1005.09
2022-12-06T00:37:30.924Z,1005.08
2022-12-06T00:38:30.956Z,1005.08
2022-12-06T00:39:30.885Z,1005.08
2022-12-06T00:40:30.876Z,1005.09
2022-12-06T00:41:30.834Z,1005.12
2022-12-06T00:42:30.816Z,1005.06
2022-12-06T00:43:30.789Z,1005.11
2022-12-06T00:44:30.775Z,1005.08
2022-12-06T00:45:30.804Z,1005.07
2022-12-06T00:46:30.763Z,1005.12
2022-12-06T00:47:30.705Z,1005.14
2022-12-06T00:48:30.691Z,1005.11
2022-12-06T00:49:30.669Z,1005.09
2022-12-06T00:50:30.671Z,1005.11
2022-12-06T00:51:30.618Z,1005.13
2022-12-06T00:52:30.628Z,1005.10
2022-12-06T00:53:30.587Z,1005.10
2022-12-06T00:54:30.562Z,1005.12
2022-12-06T00:55:30.543Z,1005.11
2022-12-06T00:56:30.518Z,1005.08
2022-12-06T00:57:30.496Z,1005.10
2022-12-06T00:58:30.501Z,1005.09
2022-12-06T00:59:30.471Z,1005.06
2022-12-06T01:00:30.432Z,1005.09
2022-12-06T01:01:30.503Z,1005.12
2022-12-06T01:02:30.392Z,1005.15
2022-12-06T01:03:34.961Z,1005.11
2022-12-06T01:04:30.372Z,1005.14
2022-12-06T01:05:30.336Z,1005.12
2022-12-06T01:06:30.303Z,1005.09
2022-12-06T01:07:30.277Z,1005.04
2022-12-06T01:08:30.257Z,1005.07
2022-12-06T01:09:30.278Z,1005.09
2022-12-06T01:10:30.213Z,1005.06
2022-12-06T01:11:30.191Z,1005.07
2022-12-06T01:12:30.183Z,1005.07
2022-12-06T01:13:30.148Z,1005.02
2022-12-06T01:14:30.133Z,1005.01
2022-12-06T01:15:30.129Z,1005.05
2022-12-06T01:16:30.180Z,1005.07
2022-12-06T01:17:30.120Z,1005.06
2022-12-06T01:18:30.044Z,1005.05
2022-12-06T01:19:30.025Z,1005.05
2022-12-06T01:20:30.002Z,1005.07
2022-12-06T01:21:29.979Z,1005.04
2022-12-06T01:22:29.965Z,1005.04
2022-12-06T01:23:29.944Z,1005.04
2022-12-06T01:24:29.913Z,1005.00
2022-12-06T01:25:35.632Z,1005.06
2022-12-06T01:26:29.871Z,1005.06
2022-12-06T01:27:29.877Z,1005.06
2022-12-06T01:28:29.835Z,1005.04
2022-12-06T01:29:29.804Z,1005.05
2022-12-06T01:30:29.860Z,1005.07
2022-12-06T01:31:37.059Z,1005.06
2022-12-06T01:32:29.745Z,1005.06
2022-12-06T01:33:29.762Z,1005.08
2022-12-06T01:34:29.705Z,1005.05
2022-12-06T01:35:29.675Z,1005.04
2022-12-06T01:36:29.655Z,1005.04
2022-12-06T01:37:29.638Z,1005.03
2022-12-06T01:38:29.613Z,1005.04
2022-12-06T01:39:29.620Z,1005.02
2022-12-06T01:40:29.572Z,1005.02
2022-12-06T01:41:29.547Z,1005.05
2022-12-06T01:42:29.527Z,1005.05
2022-12-06T01:43:29.507Z,1005.00
2022-12-06T01:44:29.528Z,1005.03
2022-12-06T01:45:29.462Z,1005.02
2022-12-06T01:46:29.481Z,1005.00
2022-12-06T01:47:29.420Z,1005.00
2022-12-06T01:48:29.403Z,1005.00
2022-12-06T01:49:29.394Z,1005.02
2022-12-06T01:50:29.357Z,1005.00
2022-12-06T01:51:29.333Z,1004.97
2022-12-06T01:52:29.317Z,1005.00
2022-12-06T01:53:29.295Z,1004.99
2022-12-06T01:54:29.295Z,1004.99
2022-12-06T01:55:29.261Z,1005.00
2022-12-06T01:56:29.231Z,1005.00
2022-12-06T01:57:29.202Z,1005.00
2022-12-06T01:58:29.182Z,1004.97
2022-12-06T01:59:29.160Z,1004.99
2022-12-06T02:00:29.146Z,1004.99
2022-12-06T02:01:29.193Z,1004.98
2022-12-06T02:02:29.225Z,1005.01
2022-12-06T02:03:29.074Z,1004.98
2022-12-06T02:04:29.056Z,1004.92
2022-12-06T02:05:29.067Z,1004.96
2022-12-06T02:06:29.013Z,1004.90
2022-12-06T02:07:29.018Z,1004.87
2022-12-06T02:08:28.973Z,1004.89
2022-12-06T02:09:28.949Z,1004.85
2022-12-06T02:10:28.928Z,1004.89
2022-12-06T02:11:33.613Z,1004.86
2022-12-06T02:12:28.923Z,1004.85
2022-12-06T02:13:28.861Z,1004.85
2022-12-06T02:14:28.858Z,1004.87
2022-12-06T02:15:28.816Z,1004.86
2022-12-06T02:16:28.870Z,1004.84
2022-12-06T02:17:28.771Z,1004.87
2022-12-06T02:18:28.763Z,1004.84
2022-12-06T02:19:28.733Z,1004.80
2022-12-06T02:20:28.725Z,1004.79
2022-12-06T02:21:28.693Z,1004.79
2022-12-06T02:22:28.670Z,1004.80
2022-12-06T02:23:28.648Z,1004.81
2022-12-06T02:24:28.626Z,1004.80
2022-12-06T02:25:31.617Z,1004.81
2022-12-06T02:26:28.593Z,1004.79
2022-12-06T02:27:28.560Z,1004.73
2022-12-06T02:28:28.542Z,1004.76
2022-12-06T02:29:28.518Z,1004.76
2022-12-06T02:30:28.631Z,1004.77
2022-12-06T02:31:28.519Z,1004.73
2022-12-06T02:32:28.452Z,1004.76
2022-12-06T02:33:28.429Z,1004.77
2022-12-06T02:34:28.411Z,1004.74
2022-12-06T02:35:28.392Z,1004.71
2022-12-06T02:36:28.420Z,1004.70
2022-12-06T02:37:28.350Z,1004.68
2022-12-06T02:38:28.324Z,1004.67
2022-12-06T02:39:28.380Z,1004.65
2022-12-06T02:40:28.282Z,1004.67
2022-12-06T02:41:28.295Z,1004.67
2022-12-06T02:42:28.238Z,1004.69
2022-12-06T02:43:28.216Z,1004.62
2022-12-06T02:44:28.197Z,1004.66
2022-12-06T02:45:28.183Z,1004.62
2022-12-06T02:46:28.201Z,1004.63
2022-12-06T02:47:28.132Z,1004.63
2022-12-06T02:48:28.118Z,1004.59
2022-12-06T02:49:28.087Z,1004.61
2022-12-06T02:50:28.066Z,1004.60
2022-12-06T02:51:28.063Z,1004.61
2022-12-06T02:52:28.029Z,1004.60
2022-12-06T02:53:27.998Z,1004.62
2022-12-06T02:54:27.979Z,1004.61
2022-12-06T02:55:27.955Z,1004.58
2022-12-06T02:56:27.969Z,1004.62
2022-12-06T02:57:27.919Z,1004.60
2022-12-06T02:58:27.892Z,1004.56
2022-12-06T02:59:27.871Z,1004.54
2022-12-06T03:00:27.849Z,1004.54
2022-12-06T03:01:27.888Z,1004.54
2022-12-06T03:02:27.839Z,1004.56
2022-12-06T03:03:27.827Z,1004.52
2022-12-06T03:04:27.791Z,1004.55
2022-12-06T03:05:27.742Z,1004.52
2022-12-06T03:06:27.721Z,1004.53
2022-12-06T03:07:27.697Z,1004.51
2022-12-06T03:08:27.677Z,1004.52
2022-12-06T03:09:27.717Z,1004.56
2022-12-06T03:10:27.645Z,1004.57
2022-12-06T03:11:27.610Z,1004.58
2022-12-06T03:12:27.590Z,1004.61
2022-12-06T03:13:27.569Z,1004.61
2022-12-06T03:14:27.551Z,1004.57
2022-12-06T03:15:27.640Z,1004.56
2022-12-06T03:16:27.505Z,1004.55
2022-12-06T03:17:27.484Z,1004.55
2022-12-06T03:18:27.459Z,1004.51
2022-12-06T03:19:27.443Z,1004.52
2022-12-06T03:20:27.419Z,1004.56
2022-12-06T03:21:27.400Z,1004.51
2022-12-06T03:22:27.375Z,1004.52
2022-12-06T03:23:27.354Z,1004.51
2022-12-06T03:24:27.331Z,1004.47
2022-12-06T03:25:27.313Z,1004.48
2022-12-06T03:26:27.313Z,1004.49
2022-12-06T03:27:27.268Z,1004.44
2022-12-06T03:28:27.245Z,1004.46
2022-12-06T03:29:27.258Z,1004.50
2022-12-06T03:30:27.229Z,1004.52
2022-12-06T03:31:27.233Z,1004.48
2022-12-06T03:32:27.159Z,1004.52
2022-12-06T03:33:27.143Z,1004.44
2022-12-06T03:34:27.117Z,1004.51
2022-12-06T03:35:27.126Z,1004.52
2022-12-06T03:36:27.072Z,1004.51
2022-12-06T03:37:27.053Z,1004.49
2022-12-06T03:38:27.031Z,1004.46
2022-12-06T03:39:27.012Z,1004.52
2022-12-06T03:40:27.012Z,1004.54
2022-12-06T03:41:26.969Z,1004.51
2022-12-06T03:42:26.941Z,1004.51
2022-12-06T03:43:26.933Z,1004.50
2022-12-06T03:44:26.937Z,1004.50
2022-12-06T03:45:26.925Z,1004.52
2022-12-06T03:46:28.006Z,1004.52
2022-12-06T03:47:26.846Z,1004.52
2022-12-06T03:48:26.867Z,1004.49
2022-12-06T03:49:26.798Z,1004.43
2022-12-06T03:50:26.770Z,1004.50
2022-12-06T03:51:26.749Z,1004.47
2022-12-06T03:52:26.727Z,1004.46
2022-12-06T03:53:26.707Z,1004.48
2022-12-06T03:54:26.709Z,1004.44
2022-12-06T03:55:26.693Z,1004.42
2022-12-06T03:56:26.674Z,1004.45
2022-12-06T03:57:26.665Z,1004.50
2022-12-06T03:58:26.599Z,1004.49
2022-12-06T03:59:26.583Z,1004.48
2022-12-06T04:00:26.563Z,1004.52
2022-12-06T04:01:26.562Z,1004.51
2022-12-06T04:02:26.537Z,1004.54
2022-12-06T04:03:26.572Z,1004.56
2022-12-06T04:04:26.469Z,1004.55
2022-12-06T04:05:26.450Z,1004.56
2022-12-06T04:06:26.425Z,1004.55
2022-12-06T04:07:26.408Z,1004.53
2022-12-06T04:08:26.386Z,1004.49
2022-12-06T04:09:26.416Z,1004.57
2022-12-06T04:10:26.340Z,1004.54
2022-12-06T04:11:26.320Z,1004.54
2022-12-06T04:12:26.295Z,1004.50
2022-12-06T04:13:26.279Z,1004.53
2022-12-06T04:14:26.258Z,1004.52
2022-12-06T04:15:26.298Z,1004.46
2022-12-06T04:16:26.333Z,1004.47
2022-12-06T04:17:26.190Z,1004.48
2022-12-06T04:18:26.167Z,1004.43
2022-12-06T04:19:26.160Z,1004.46
2022-12-06T04:20:26.123Z,1004.43
2022-12-06T04:21:26.113Z,1004.45
2022-12-06T04:22:26.082Z,1004.43
2022-12-06T04:23:26.100Z,1004.47
2022-12-06T04:24:26.038Z,1004.44
2022-12-06T04:25:26.028Z,1004.45
2022-12-06T04:26:25.997Z,1004.40
2022-12-06T04:27:25.974Z,1004.39
2022-12-06T04:28:25.992Z,1004.43
2022-12-06T04:29:25.930Z,1004.44
2022-12-06T04:30:25.915Z,1004.41
2022-12-06T04:31:25.953Z,1004.42
2022-12-06T04:32:25.875Z,1004.39
2022-12-06T04:33:25.884Z,1004.37
2022-12-06T04:34:25.826Z,1004.33
2022-12-06T04:35:25.801Z,1004.35
2022-12-06T04:36:25.781Z,1004.38
2022-12-06T04:37:25.764Z,1004.40
2022-12-06T04:38:25.744Z,1004.35
2022-12-06T04:39:25.754Z,1004.33
2022-12-06T04:40:25.692Z,1004.36
2022-12-06T04:41:25.675Z,1004.34
2022-12-06T04:42:25.646Z,1004.30
2022-12-06T04:43:25.628Z,1004.31
2022-12-06T04:44:25.632Z,1004.25
2022-12-06T04:45:25.584Z,1004.23
2022-12-06T04:46:25.704Z,1004.22
2022-12-06T04:47:25.540Z,1004.19
2022-12-06T04:48:25.519Z,1004.22
2022-12-06T04:49:25.547Z,1004.20
2022-12-06T04:50:25.484Z,1004.20
2022-12-06T04:51:25.455Z,1004.22
2022-12-06T04:52:25.431Z,1004.22
2022-12-06T04:53:25.411Z,1004.21
2022-12-06T04:54:25.388Z,1004.23
2022-12-06T04:55:25.424Z,1004.22
2022-12-06T04:56:25.345Z,1004.23
2022-12-06T04:57:25.329Z,1004.22
2022-12-06T04:58:25.318Z,1004.23
2022-12-06T04:59:25.292Z,1004.25
2022-12-06T05:00:25.280Z,1004.25
2022-12-06T05:01:25.323Z,1004.22
2022-12-06T05:02:25.217Z,1004.25
2022-12-06T05:03:25.241Z,1004.22
2022-12-06T05:04:25.255Z,1004.22
2022-12-06T05:05:25.191Z,1004.24
2022-12-06T05:06:25.132Z,1004.23
2022-12-06T05:07:25.113Z,1004.20
2022-12-06T05:08:25.115Z,1004.18
2022-12-06T05:09:25.069Z,1004.18
2022-12-06T05:10:25.048Z,1004.18
2022-12-06T05:11:25.020Z,1004.16
2022-12-06T05:12:24.998Z,1004.16
2022-12-06T05:13:25.031Z,1004.16
2022-12-06T05:14:24.952Z,1004.17
2022-12-06T05:15:29.007Z,1004.21
2022-12-06T05:16:24.922Z,1004.20
2022-12-06T05:17:24.893Z,1004.18
2022-12-06T05:18:24.867Z,1004.19
2022-12-06T05:19:24.855Z,1004.18
2022-12-06T05:20:24.854Z,1004.11
2022-12-06T05:21:24.807Z,1004.11
2022-12-06T05:22:24.787Z,1004.12
2022-12-06T05:23:24.766Z,1004.14
2022-12-06T05:24:24.742Z,1004.16
2022-12-06T05:25:24.724Z,1004.15
2022-12-06T05:26:24.696Z,1004.18
2022-12-06T05:27:24.677Z,1004.18
2022-12-06T05:28:24.652Z,1004.16
2022-12-06T05:29:24.661Z,1004.15
2022-12-06T05:30:24.608Z,1004.15
2022-12-06T05:31:24.648Z,1004.11
2022-12-06T05:32:24.597Z,1004.08
2022-12-06T05:33:24.547Z,1004.08
2022-12-06T05:34:24.521Z,1004.09
2022-12-06T05:35:24.509Z,1004.10
2022-12-06T05:36:24.479Z,1004.15
2022-12-06T05:37:24.462Z,1004.11
2022-12-06T05:38:24.463Z,1004.12
2022-12-06T05:39:24.423Z,1004.13
2022-12-06T05:40:24.421Z,1004.14
2022-12-06T05:41:24.378Z,1004.12
2022-12-06T05:42:24.352Z,1004.11
2022-12-06T05:43:24.340Z,1004.07
2022-12-06T05:44:24.307Z,1004.04
2022-12-06T05:45:24.317Z,1004.08
2022-12-06T05:46:24.309Z,1004.07
2022-12-06T05:47:24.244Z,1004.03
2022-12-06T05:48:24.222Z,1004.04
2022-12-06T05:49:24.202Z,1004.04
2022-12-06T05:50:24.181Z,1004.05
2022-12-06T05:51:24.170Z,1004.02
2022-12-06T05:52:24.136Z,1004.02
2022-12-06T05:53:24.115Z,1004.02
2022-12-06T05:54:24.162Z,1004.04
2022-12-06T05:55:24.078Z,1004.03
2022-12-06T05:56:24.052Z,1004.09
2022-12-06T05:57:24.028Z,1004.06
2022-12-06T05:58:24.008Z,1004.06
2022-12-06T05:59:24.007Z,1004.06
2022-12-06T06:00:24.004Z,1004.10
2022-12-06T06:01:23.967Z,1004.05
2022-12-06T06:02:23.990Z,1004.05
2022-12-06T06:03:23.942Z,1004.07
2022-12-06T06:04:23.878Z,1004.07
2022-12-06T06:05:23.877Z,1004.04
2022-12-06T06:06:23.864Z,1004.11
2022-12-06T06:07:23.816Z,1004.08
2022-12-06T06:08:23.897Z,1004.11
2022-12-06T06:09:23.773Z,1004.14
2022-12-06T06:10:23.753Z,1004.08
2022-12-06T06:11:23.764Z,1004.10
2022-12-06T06:12:23.710Z,1004.10
2022-12-06T06:13:23.690Z,1004.11
2022-12-06T06:14:23.665Z,1004.16
2022-12-06T06:15:23.643Z,1004.16
2022-12-06T06:16:23.703Z,1004.13
2022-12-06T06:17:23.659Z,1004.11
2022-12-06T06:18:23.580Z,1004.08
2022-12-06T06:19:23.561Z,1004.10
2022-12-06T06:20:23.535Z,1004.07
2022-12-06T06:21:23.523Z,1004.05
2022-12-06T06:22:23.496Z,1004.06
2022-12-06T06:23:23.477Z,1004.06
2022-12-06T06:24:23.468Z,1004.01
2022-12-06T06:25:23.437Z,1004.00
2022-12-06T06:26:23.405Z,1004.01
2022-12-06T06:27:23.388Z,1004.08
2022-12-06T06:28:23.418Z,1004.02
2022-12-06T06:29:23.345Z,1004.04
2022-12-06T06:30:23.336Z,1004.04
2022-12-06T06:31:23.342Z,1004.01
2022-12-06T06:32:23.281Z,1004.06
2022-12-06T06:33:23.261Z,1004.03
2022-12-06T06:34:23.267Z,1004.08
2022-12-06T06:35:23.227Z,1004.06
2022-12-06T06:36:23.255Z,1004.04
2022-12-06T06:37:23.177Z,1004.02
2022-12-06T06:38:23.150Z,1004.01
2022-12-06T06:39:23.129Z,1004.05
2022-12-06T06:40:23.113Z,1004.07
2022-12-06T06:41:23.132Z,1004.12
2022-12-06T06:42:23.066Z,1004.08
2022-12-06T06:43:23.044Z,1004.08
2022-12-06T06:44:23.050Z,1004.08
2022-12-06T06:45:28.403Z,1004.09
2022-12-06T06:46:22.997Z,1004.10
2022-12-06T06:47:22.960Z,1004.09
2022-12-06T06:48:22.936Z,1004.12
2022-12-06T06:49:22.939Z,1004.11
2022-12-06T06:50:22.891Z,1004.16
2022-12-06T06:51:22.898Z,1004.15
2022-12-06T06:52:22.853Z,1004.15
2022-12-06T06:53:22.831Z,1004.16
2022-12-06T06:54:22.825Z,1004.22
2022-12-06T06:55:22.794Z,1004.14
2022-12-06T06:56:22.844Z,1004.20
2022-12-06T06:57:22.751Z,1004.17
2022-12-06T06:58:22.723Z,1004.17
2022-12-06T06:59:22.704Z,1004.23
2022-12-06T07:00:22.679Z,1004.22
2022-12-06T07:01:22.715Z,1004.27
2022-12-06T07:02:22.674Z,1004.27
2022-12-06T07:03:22.620Z,1004.24
2022-12-06T07:04:22.605Z,1004.23
2022-12-06T07:05:22.578Z,1004.25
2022-12-06T07:06:22.563Z,1004.27
2022-12-06T07:07:22.538Z,1004.24
2022-12-06T07:08:22.650Z,1004.26
2022-12-06T07:09:22.489Z,1004.26
2022-12-06T07:10:22.466Z,1004.32
2022-12-06T07:11:22.451Z,1004.29
2022-12-06T07:12:22.428Z,1004.30
2022-12-06T07:13:22.404Z,1004.28
2022-12-06T07:14:22.415Z,1004.26
2022-12-06T07:15:22.363Z,1004.29
2022-12-06T07:16:22.391Z,1004.28
2022-12-06T07:17:22.326Z,1004.26
2022-12-06T07:18:22.297Z,1004.29
2022-12-06T07:19:22.305Z,1004.26
2022-12-06T07:20:22.254Z,1004.28
2022-12-06T07:21:22.238Z,1004.35
2022-12-06T07:22:22.223Z,1004.30
2022-12-06T07:23:22.193Z,1004.34
2022-12-06T07:24:22.170Z,1004.36
2022-12-06T07:25:22.157Z,1004.37
2022-12-06T07:26:22.130Z,1004.37
2022-12-06T07:27:22.139Z,1004.44
2022-12-06T07:28:22.089Z,1004.41
2022-12-06T07:29:22.072Z,1004.42
2022-12-06T07:30:27.156Z,1004.40
2022-12-06T07:31:22.132Z,1004.43
2022-12-06T07:32:22.006Z,1004.43
2022-12-06T07:33:22.045Z,1004.43
2022-12-06T07:34:21.967Z,1004.47
2022-12-06T07:35:21.952Z,1004.42
2022-12-06T07:36:21.953Z,1004.47
2022-12-06T07:37:21.908Z,1004.49
2022-12-06T07:38:21.918Z,1004.50
2022-12-06T07:39:21.854Z,1004.44
2022-12-06T07:40:41.303Z,1004.40
2022-12-06T07:41:21.812Z,1004.46
2022-12-06T07:42:21.804Z,1004.38
2022-12-06T07:43:21.814Z,1004.35
2022-12-06T07:44:21.752Z,1004.37
2022-12-06T07:45:21.726Z,1004.37
2022-12-06T07:46:21.757Z,1004.43
2022-12-06T07:47:21.692Z,1004.41
2022-12-06T07:48:21.667Z,1004.41
2022-12-06T07:49:21.678Z,1004.41
2022-12-06T07:50:21.627Z,1004.41
2022-12-06T07:51:21.649Z,1004.41
2022-12-06T07:52:21.581Z,1004.47
2022-12-06T07:53:21.562Z,1004.40
2022-12-06T07:54:21.539Z,1004.44
2022-12-06T07:55:21.522Z,1004.48
2022-12-06T07:56:21.501Z,1004.47
2022-12-06T07:57:21.481Z,1004.49
2022-12-06T07:58:21.459Z,1004.54
2022-12-06T07:59:21.437Z,1004.52
2022-12-06T08:00:21.443Z,1004.54
2022-12-06T08:01:21.455Z,1004.58
2022-12-06T08:02:21.373Z,1004.58
2022-12-06T08:03:21.351Z,1004.57
2022-12-06T08:04:21.355Z,1004.61
2022-12-06T08:05:21.336Z,1004.48
2022-12-06T08:06:21.289Z,1004.52
2022-12-06T08:07:21.270Z,1004.56
2022-12-06T08:08:26.737Z,1004.55
2022-12-06T08:09:21.227Z,1004.56
2022-12-06T08:10:21.236Z,1004.51
2022-12-06T08:11:21.185Z,1004.56
2022-12-06T08:12:21.517Z,1004.59
2022-12-06T08:13:21.153Z,1004.57
2022-12-06T08:14:21.179Z,1004.54
2022-12-06T08:15:21.106Z,1004.56
2022-12-06T08:16:22.483Z,1004.58
2022-12-06T08:17:21.078Z,1004.60
2022-12-06T08:18:21.078Z,1004.57
2022-12-06T08:19:21.045Z,1004.55
2022-12-06T08:20:21.004Z,1004.62
2022-12-06T08:21:20.991Z,1004.64
2022-12-06T08:22:20.958Z,1004.63
2022-12-06T08:23:20.970Z,1004.66
2022-12-06T08:24:20.922Z,1004.62
2022-12-06T08:25:20.897Z,1004.64
2022-12-06T08:26:20.883Z,1004.61
2022-12-06T08:27:20.853Z,1004.64
2022-12-06T08:28:20.894Z,1004.64
2022-12-06T08:29:20.821Z,1004.65
2022-12-06T08:30:20.800Z,1004.64
2022-12-06T08:31:20.807Z,1004.71
2022-12-06T08:32:20.760Z,1004.69
2022-12-06T08:33:20.736Z,1004.64
2022-12-06T08:34:20.719Z,1004.67
2022-12-06T08:35:20.695Z,1004.66
2022-12-06T08:36:20.702Z,1004.60
2022-12-06T08:37:20.648Z,1004.60
2022-12-06T08:38:20.636Z,1004.59
2022-12-06T08:39:20.726Z,1004.60
2022-12-06T08:40:20.599Z,1004.56
2022-12-06T08:41:20.572Z,1004.58
2022-12-06T08:42:25.054Z,1004.60
2022-12-06T08:43:20.534Z,1004.61
2022-12-06T08:44:20.518Z,1004.54
2022-12-06T08:45:20.520Z,1004.60
2022-12-06T08:46:20.611Z,1004.65
2022-12-06T08:47:20.456Z,1004.66
2022-12-06T08:48:20.436Z,1004.63
2022-12-06T08:49:20.409Z,1004.63
2022-12-06T08:50:20.390Z,1004.65
2022-12-06T08:51:20.364Z,1004.69
2022-12-06T08:52:20.405Z,1004.66
2022-12-06T08:53:20.355Z,1004.65
2022-12-06T08:54:20.302Z,1004.67
2022-12-06T08:55:20.280Z,1004.67
2022-12-06T08:56:20.268Z,1004.68
2022-12-06T08:57:20.247Z,1004.69
2022-12-06T08:58:20.305Z,1004.60
2022-12-06T08:59:20.203Z,1004.69
2022-12-06T09:00:20.190Z,1004.65
2022-12-06T09:01:20.222Z,1004.64
2022-12-06T09:02:20.244Z,1004.73
2022-12-06T09:03:20.123Z,1004.70
2022-12-06T09:04:20.228Z,1004.69
2022-12-06T09:05:20.086Z,1004.70
2022-12-06T09:06:20.060Z,1004.75
2022-12-06T09:07:20.040Z,1004.74
2022-12-06T09:08:20.094Z,1004.76
2022-12-06T09:09:20.031Z,1004.75
2022-12-06T09:10:19.998Z,1004.77
2022-12-06T09:11:19.958Z,1004.71
2022-12-06T09:12:19.940Z,1004.75
2022-12-06T09:13:19.920Z,1004.72
2022-12-06T09:14:22.240Z,1004.74
2022-12-06T09:15:19.876Z,1004.79
2022-12-06T09:16:19.899Z,1004.77
2022-12-06T09:17:19.897Z,1004.78
2022-12-06T09:18:19.867Z,1004.80
2022-12-06T09:19:19.827Z,1004.80
2022-12-06T09:20:19.779Z,1004.78
2022-12-06T09:21:19.756Z,1004.74
2022-12-06T09:22:19.769Z,1004.76
2022-12-06T09:23:19.717Z,1004.78
2022-12-06T09:24:19.697Z,1004.74
2022-12-06T09:25:19.705Z,1004.70
2022-12-06T09:26:19.689Z,1004.76
2022-12-06T09:27:19.633Z,1004.74
2022-12-06T09:28:19.624Z,1004.78
2022-12-06T09:29:19.602Z,1004.76
2022-12-06T09:30:19.575Z,1004.75
2022-12-06T09:31:19.572Z,1004.77
2022-12-06T09:32:19.572Z,1004.77
2022-12-06T09:33:19.519Z,1004.74
2022-12-06T09:34:19.503Z,1004.74
2022-12-06T09:35:24.729Z,1004.73
2022-12-06T09:36:19.455Z,1004.70
2022-12-06T09:37:19.452Z,1004.66
2022-12-06T09:38:19.418Z,1004.67
2022-12-06T09:39:19.394Z,1004.65
2022-12-06T09:40:19.375Z,1004.66
2022-12-06T09:41:19.389Z,1004.70
2022-12-06T09:42:19.383Z,1004.68
2022-12-06T09:43:19.314Z,1004.66
2022-12-06T09:44:19.297Z,1004.66
2022-12-06T09:45:19.278Z,1004.69
2022-12-06T09:46:19.304Z,1004.68
2022-12-06T09:47:19.230Z,1004.74
2022-12-06T09:48:19.284Z,1004.70
2022-12-06T09:49:19.190Z,1004.72
2022-12-06T09:50:19.172Z,1004.71
2022-12-06T09:51:19.150Z,1004.71
2022-12-06T09:52:19.135Z,1004.68
2022-12-06T09:53:19.113Z,1004.63
2022-12-06T09:54:19.111Z,1004.65
2022-12-06T09:55:19.195Z,1004.59
2022-12-06T09:56:19.059Z,1004.61
2022-12-06T09:57:19.059Z,1004.60
2022-12-06T09:58:19.055Z,1004.57
2022-12-06T09:59:18.990Z,1004.56
2022-12-06T10:00:22.619Z,1004.58
2022-12-06T10:01:19.004Z,1004.57
2022-12-06T10:02:19.022Z,1004.56
2022-12-06T10:03:18.983Z,1004.55
2022-12-06T10:04:18.891Z,1004.57
2022-12-06T10:05:18.877Z,1004.55
2022-12-06T10:06:18.852Z,1004.53
2022-12-06T10:07:18.838Z,1004.55
2022-12-06T10:08:18.932Z,1004.54
2022-12-06T10:09:18.845Z,1004.50
2022-12-06T10:10:19.011Z,1004.50
2022-12-06T10:11:18.748Z,1004.55
2022-12-06T10:12:18.733Z,1004.53
2022-12-06T10:13:18.712Z,1004.55
2022-12-06T10:14:18.694Z,1004.51
2022-12-06T10:15:18.669Z,1004.46
2022-12-06T10:16:18.776Z,1004.53
2022-12-06T10:17:18.657Z,1004.46
2022-12-06T10:18:18.617Z,1004.41
2022-12-06T10:19:18.606Z,1004.45
2022-12-06T10:20:18.576Z,1004.37
2022-12-06T10:21:18.554Z,1004.37
2022-12-06T10:22:18.594Z,1004.40
2022-12-06T10:23:18.516Z,1004.37
2022-12-06T10:24:18.495Z,1004.35
2022-12-06T10:25:18.485Z,1004.31
2022-12-06T10:26:18.506Z,1004.33
2022-12-06T10:27:18.435Z,1004.31
2022-12-06T10:28:18.417Z,1004.33
2022-12-06T10:29:18.396Z,1004.27
2022-12-06T10:30:18.390Z,1004.31
2022-12-06T10:31:18.404Z,1004.34
2022-12-06T10:32:18.362Z,1004.32
2022-12-06T10:33:18.379Z,1004.30
2022-12-06T10:34:18.295Z,1004.31
2022-12-06T10:35:18.275Z,1004.30
2022-12-06T10:36:18.256Z,1004.30
2022-12-06T10:37:18.234Z,1004.27
2022-12-06T10:38:18.220Z,1004.31
2022-12-06T10:39:18.220Z,1004.27
2022-12-06T10:40:18.181Z,1004.27
2022-12-06T10:41:18.162Z,1004.25
2022-12-06T10:42:18.135Z,1004.31
2022-12-06T10:43:18.120Z,1004.32
2022-12-06T10:44:18.098Z,1004.35
2022-12-06T10:45:23.430Z,1004.27
2022-12-06T10:46:18.150Z,1004.30
2022-12-06T10:47:18.032Z,1004.30
2022-12-06T10:48:18.018Z,1004.28
2022-12-06T10:49:18.031Z,1004.28
2022-12-06T10:50:17.982Z,1004.27
2022-12-06T10:51:17.959Z,1004.29
2022-12-06T10:52:17.938Z,1004.30
2022-12-06T10:53:17.947Z,1004.30
2022-12-06T10:54:17.900Z,1004.31
2022-12-06T10:55:17.879Z,1004.34
2022-12-06T10:56:17.857Z,1004.29
2022-12-06T10:57:17.864Z,1004.30
2022-12-06T10:58:17.818Z,1004.29
2022-12-06T10:59:17.822Z,1004.32
2022-12-06T11:00:18.309Z,1004.24
2022-12-06T11:01:17.822Z,1004.29
2022-12-06T11:02:17.855Z,1004.26
2022-12-06T11:03:17.719Z,1004.26
2022-12-06T11:04:17.702Z,1004.27
2022-12-06T11:05:17.703Z,1004.28
2022-12-06T11:06:17.659Z,1004.22
2022-12-06T11:07:17.684Z,1004.24
2022-12-06T11:08:17.679Z,1004.22
2022-12-06T11:09:17.599Z,1004.21
2022-12-06T11:10:17.609Z,1004.18
2022-12-06T11:12:49.642Z,1004.19
2022-12-06T11:13:49.617Z,1004.20
2022-12-06T11:14:49.623Z,1004.17
2022-12-06T11:15:49.664Z,1004.15
2022-12-06T11:16:49.609Z,1004.11
2022-12-06T11:17:49.581Z,1004.13
2022-12-06T11:18:49.523Z,1004.11
2022-12-06T11:19:49.509Z,1004.10
2022-12-06T11:20:49.507Z,1004.13
2022-12-06T11:21:49.493Z,1004.12
2022-12-06T11:22:49.444Z,1004.14
2022-12-06T11:23:49.458Z,1004.12
2022-12-06T11:24:49.421Z,1004.14
2022-12-06T11:25:49.404Z,1004.09
2022-12-06T11:26:49.383Z,1004.12
2022-12-06T11:27:49.343Z,1004.07
2022-12-06T11:28:49.344Z,1004.10
2022-12-06T11:29:49.295Z,1004.08
2022-12-06T11:30:49.309Z,1004.07
2022-12-06T11:31:49.357Z,1004.05
2022-12-06T11:32:49.248Z,1004.06
2022-12-06T11:33:49.218Z,1004.03
2022-12-06T11:34:49.211Z,1004.04
2022-12-06T11:35:49.193Z,1004.04
2022-12-06T11:36:49.191Z,1004.01
2022-12-06T11:37:49.139Z,1004.04
2022-12-06T11:38:49.125Z,1004.09
2022-12-06T11:39:49.101Z,1004.06
2022-12-06T11:40:49.079Z,1004.03
2022-12-06T11:41:49.087Z,1004.00
2022-12-06T11:42:49.042Z,1004.04
2022-12-06T11:43:49.032Z,1004.06
2022-12-06T11:44:50.133Z,1004.08
2022-12-06T11:45:48.982Z,1004.08
2022-12-06T11:46:49.083Z,1004.03
2022-12-06T11:47:48.947Z,1004.02
2022-12-06T11:48:48.979Z,1004.04
2022-12-06T11:49:48.907Z,1003.99
2022-12-06T11:50:48.879Z,1003.99
2022-12-06T11:51:49.110Z,1003.97
2022-12-06T11:52:48.842Z,1003.95
2022-12-06T11:53:48.824Z,1003.97
2022-12-06T11:54:48.853Z,1003.96
2022-12-06T11:55:48.783Z,1003.98
2022-12-06T11:56:48.761Z,1003.95
2022-12-06T11:57:48.745Z,1003.97
2022-12-06T11:58:48.745Z,1003.93
2022-12-06T11:59:48.705Z,1003.95
2022-12-06T12:00:48.735Z,1004.01
2022-12-06T12:01:48.785Z,1004.00
2022-12-06T12:02:48.693Z,1003.97
2022-12-06T12:03:48.711Z,1003.99
2022-12-06T12:04:48.626Z,1003.97
2022-12-06T12:05:48.618Z,1004.00
2022-12-06T12:06:48.574Z,1003.94